Hlavní strana
METAR-TAF:

METAR-TAF

Letiště :

Yao, Japonsko

zeměpisná šířka: 34-36N, zeměpisná délka: 135-36E, výška: 10 m

Aktuální stav počasí

Zpráva byla vytvořena před 23 minutami, v 06:00 UTC
Severozápadní vítr 9 kt, proměnlivý mezi západním a severním
Teplota 10°C
Vlhkost vzduchu 50%
Tlak 1025 hPa
Viditelnost 10 km a více
Skoro jasno ve výšce 3000 ft
Oblačno až skoro zataženo ve výšce 4500 ft

METAR: RJOY 210600Z 31009KT 280V010 9999 FEW030 BKN045 10/00 Q1025

Čas: 15:23 (06:23 UTC)


TAF: chybějící

Stav a předpovědi počasí z více než 4 000 letišť (zprávy METAR a TAF).

Červené a žluté tečky na mapě představují dostupné meteorologické stanice.

Když kurzor umístíte na tečku, zobrazí se název stanice.

Pak kliknutím zobrazíte stav a předpověď počasí.

Chcete-li změnit mapu, kliknutím na zelené tlačítko se znaménkem +mapu přiblížíte, kliknutím na zelené tlačítko se znaménkem – mapu oddálíte a kliknutím na zelené šipky přejdete na sousední mapy.


METAR-TAF: